createdAt,value
2023-09-12T00:00:49.094Z,12.20
2023-09-12T00:03:16.039Z,11.40
2023-09-12T00:05:42.726Z,13.70
2023-09-12T00:08:09.564Z,12.00
2023-09-12T00:10:36.221Z,12.60
2023-09-12T00:13:03.520Z,12.40
2023-09-12T00:15:30.456Z,13.53
2023-09-12T00:17:57.645Z,13.80
2023-09-12T00:20:25.033Z,13.53
2023-09-12T00:22:51.930Z,14.47
2023-09-12T00:25:18.936Z,15.00
2023-09-12T00:27:45.552Z,15.37
2023-09-12T00:30:12.945Z,15.77
2023-09-12T00:32:40.434Z,15.23
2023-09-12T00:35:07.299Z,15.27
2023-09-12T00:37:34.348Z,15.00
2023-09-12T00:40:00.936Z,16.03
2023-09-12T00:42:27.950Z,16.63
2023-09-12T00:44:54.649Z,19.03
2023-09-12T00:47:23.066Z,21.10
2023-09-12T00:49:56.476Z,20.87
2023-09-12T00:52:26.712Z,21.97
2023-09-12T00:54:54.563Z,23.00
2023-09-12T00:57:24.753Z,22.97
2023-09-12T00:59:53.260Z,22.30
2023-09-12T01:02:23.498Z,25.37
2023-09-12T01:04:50.345Z,24.53
2023-09-12T01:07:17.411Z,25.50
2023-09-12T01:09:44.134Z,25.87
2023-09-12T01:12:15.609Z,24.60
2023-09-12T01:14:43.199Z,25.40
2023-09-12T01:17:09.858Z,25.97
2023-09-12T01:19:36.911Z,25.77
2023-09-12T01:22:15.681Z,25.97
2023-09-12T01:25:00.934Z,24.97
2023-09-12T01:27:52.208Z,24.33
2023-09-12T01:30:22.814Z,24.57
2023-09-12T01:32:49.989Z,22.60
2023-09-12T01:35:16.560Z,21.97
2023-09-12T01:37:43.136Z,22.93
2023-09-12T01:40:11.981Z,22.53
2023-09-12T01:42:43.322Z,23.00
2023-09-12T01:45:13.014Z,22.03
2023-09-12T01:47:40.934Z,23.13
2023-09-12T01:50:10.152Z,25.07
2023-09-12T01:52:37.627Z,27.10
2023-09-12T01:55:05.842Z,28.33
2023-09-12T01:57:33.793Z,30.40
2023-09-12T02:00:00.646Z,30.23
2023-09-12T02:02:27.378Z,30.03
2023-09-12T02:05:20.015Z,29.13
2023-09-12T02:07:47.493Z,30.00
2023-09-12T02:10:14.810Z,30.20
2023-09-12T02:12:42.332Z,30.10
2023-09-12T02:15:09.929Z,30.47
2023-09-12T02:17:36.553Z,31.70
2023-09-12T02:20:06.720Z,33.00
2023-09-12T02:22:33.318Z,35.30
2023-09-12T02:24:59.926Z,36.27
2023-09-12T02:27:26.563Z,36.83
2023-09-12T02:29:53.948Z,37.27
2023-09-12T02:32:20.746Z,37.27
2023-09-12T02:34:47.424Z,40.20
2023-09-12T02:37:14.046Z,38.27
2023-09-12T02:39:41.123Z,42.73
2023-09-12T02:42:07.742Z,41.80
2023-09-12T02:44:34.865Z,41.27
2023-09-12T02:47:01.913Z,43.77
2023-09-12T02:49:29.350Z,42.57
2023-09-12T02:51:55.964Z,41.97
2023-09-12T02:54:22.801Z,41.67
2023-09-12T02:56:49.392Z,44.07
2023-09-12T02:59:16.182Z,40.87
2023-09-12T03:01:43.689Z,43.60
2023-09-12T03:04:10.421Z,41.90
2023-09-12T03:06:37.581Z,41.60
2023-09-12T03:09:05.439Z,43.20
2023-09-12T03:11:32.245Z,44.73
2023-09-12T03:13:59.921Z,41.13
2023-09-12T03:16:26.703Z,43.30
2023-09-12T03:18:53.410Z,41.00
2023-09-12T03:21:20.799Z,40.17
2023-09-12T03:23:47.485Z,41.40
2023-09-12T03:26:15.426Z,40.80
2023-09-12T03:28:42.737Z,40.53
2023-09-12T03:31:15.681Z,39.83
2023-09-12T03:33:44.461Z,37.27
2023-09-12T03:36:11.241Z,40.50
2023-09-12T03:38:37.894Z,42.23
2023-09-12T03:41:04.711Z,44.83
2023-09-12T03:43:31.685Z,43.27
2023-09-12T03:45:58.472Z,42.40
2023-09-12T03:48:25.689Z,40.30
2023-09-12T03:50:52.623Z,37.77
2023-09-12T03:53:19.827Z,40.67
2023-09-12T03:56:09.360Z,36.73
2023-09-12T03:58:36.321Z,35.17
2023-09-12T04:01:03.348Z,34.70
2023-09-12T04:03:30.359Z,36.67
2023-09-12T04:05:57.180Z,35.93
2023-09-12T04:08:24.397Z,36.93
2023-09-12T04:10:51.467Z,36.60
2023-09-12T04:13:18.529Z,39.57
2023-09-12T04:15:45.919Z,36.80
2023-09-12T04:18:12.909Z,35.37
2023-09-12T04:20:39.587Z,35.40
2023-09-12T04:23:06.737Z,35.77
2023-09-12T04:25:34.901Z,35.60
2023-09-12T04:28:01.554Z,36.40
2023-09-12T04:30:28.726Z,36.93
2023-09-12T04:32:56.455Z,35.70
2023-09-12T04:35:23.912Z,36.50
2023-09-12T04:37:50.852Z,36.17
2023-09-12T04:40:17.900Z,37.70
2023-09-12T04:42:44.823Z,37.43
2023-09-12T04:45:12.032Z,35.67
2023-09-12T04:47:38.757Z,36.60
2023-09-12T04:50:06.527Z,36.80
2023-09-12T04:52:34.259Z,38.00
2023-09-12T04:55:02.513Z,37.90
2023-09-12T04:57:32.270Z,36.60
2023-09-12T04:59:59.583Z,37.53
2023-09-12T05:02:26.728Z,36.13
2023-09-12T05:04:53.655Z,35.90
2023-09-12T05:07:20.547Z,37.90
2023-09-12T05:09:47.244Z,36.07
2023-09-12T05:12:15.026Z,35.67
2023-09-12T05:14:41.890Z,34.87
2023-09-12T05:17:09.270Z,35.53
2023-09-12T05:19:35.860Z,37.30
2023-09-12T05:22:02.774Z,39.50
2023-09-12T05:24:29.452Z,39.03
2023-09-12T05:26:57.958Z,38.10
2023-09-12T05:29:24.634Z,37.70
2023-09-12T05:31:51.916Z,38.07
2023-09-12T05:34:19.234Z,37.70
2023-09-12T05:36:46.134Z,38.00
2023-09-12T05:39:14.816Z,34.93
2023-09-12T05:41:42.146Z,39.57
2023-09-12T05:44:09.473Z,35.57
2023-09-12T05:46:36.260Z,34.97
2023-09-12T05:49:02.928Z,37.33
2023-09-12T05:51:31.873Z,35.97
2023-09-12T05:53:59.053Z,36.60
2023-09-12T05:56:25.951Z,34.10
2023-09-12T05:58:52.954Z,34.33
2023-09-12T06:01:20.493Z,35.73
2023-09-12T06:03:47.539Z,33.97
2023-09-12T06:06:15.331Z,34.60
2023-09-12T06:08:42.616Z,34.10
2023-09-12T06:11:12.133Z,33.00
2023-09-12T06:13:38.749Z,33.67
2023-09-12T06:16:07.312Z,32.47
2023-09-12T06:18:35.519Z,31.83
2023-09-12T06:21:05.296Z,32.40
2023-09-12T06:23:33.186Z,31.97
2023-09-12T06:25:59.745Z,31.27
2023-09-12T06:28:28.149Z,27.50
2023-09-12T06:30:55.270Z,24.57
2023-09-12T06:33:22.463Z,24.83
2023-09-12T06:35:51.226Z,23.30
2023-09-12T06:38:17.904Z,23.50
2023-09-12T06:40:45.050Z,22.60
2023-09-12T06:43:11.744Z,23.30
2023-09-12T06:45:39.286Z,23.73
2023-09-12T06:48:06.564Z,23.87
2023-09-12T06:50:35.242Z,22.63
2023-09-12T06:53:02.096Z,23.67
2023-09-12T06:55:29.490Z,21.30
2023-09-12T06:57:56.147Z,23.03
2023-09-12T07:00:23.450Z,21.10
2023-09-12T07:02:51.048Z,21.00
2023-09-12T07:05:18.179Z,22.47
2023-09-12T07:07:45.262Z,20.33
2023-09-12T07:10:23.462Z,20.10
2023-09-12T07:12:53.769Z,20.93
2023-09-12T07:15:21.225Z,19.97
2023-09-12T07:17:48.345Z,20.63
2023-09-12T07:20:16.988Z,19.60
2023-09-12T07:22:44.600Z,20.80
2023-09-12T07:25:12.807Z,21.37
2023-09-12T07:27:40.100Z,21.83
2023-09-12T07:30:08.621Z,20.37
2023-09-12T07:32:35.365Z,20.20
2023-09-12T07:35:02.221Z,20.83
2023-09-12T07:37:29.557Z,21.20
2023-09-12T07:39:56.879Z,21.10
2023-09-12T07:42:25.389Z,20.70
2023-09-12T07:47:36.860Z,20.73
2023-09-12T07:50:22.037Z,21.43
2023-09-12T07:52:49.635Z,20.83
2023-09-12T07:55:46.729Z,20.87
2023-09-12T07:58:15.169Z,20.20
2023-09-12T08:00:42.635Z,20.20
2023-09-12T08:03:09.913Z,17.67
2023-09-12T08:05:37.636Z,16.37
2023-09-12T08:08:04.935Z,14.77
2023-09-12T08:10:31.912Z,14.23
2023-09-12T08:12:58.728Z,12.27
2023-09-12T08:15:25.746Z,11.33
2023-09-12T08:17:54.215Z,11.77
2023-09-12T08:20:21.734Z,12.43
2023-09-12T08:22:50.064Z,10.43
2023-09-12T08:28:02.167Z,10.10
2023-09-12T08:30:31.582Z,10.90
2023-09-12T08:32:59.387Z,9.87
2023-09-12T08:35:28.287Z,9.73
2023-09-12T08:37:55.278Z,8.30
2023-09-12T08:40:21.896Z,9.60
2023-09-12T08:42:52.143Z,8.30
2023-09-12T08:45:20.884Z,9.43
2023-09-12T08:47:51.496Z,10.50
2023-09-12T08:50:21.939Z,10.13
2023-09-12T08:53:05.343Z,12.97
2023-09-12T08:55:38.976Z,13.07
2023-09-12T08:58:07.399Z,14.70
2023-09-12T09:00:35.735Z,13.43
2023-09-12T09:03:03.957Z,14.73
2023-09-12T09:05:32.093Z,14.93
2023-09-12T09:08:01.179Z,15.00
2023-09-12T09:10:47.057Z,15.30
2023-09-12T09:13:16.835Z,14.73
2023-09-12T09:15:43.859Z,16.40
2023-09-12T09:18:13.293Z,16.17
2023-09-12T09:20:41.932Z,17.20
2023-09-12T09:23:12.114Z,17.33
2023-09-12T09:25:42.778Z,15.90
2023-09-12T09:28:22.861Z,15.30
2023-09-12T09:30:54.320Z,15.70
2023-09-12T09:33:21.859Z,14.90
2023-09-12T09:35:50.015Z,16.23
2023-09-12T09:38:20.407Z,14.50
2023-09-12T09:40:47.507Z,14.50
2023-09-12T09:43:19.830Z,14.70
2023-09-12T09:45:47.645Z,13.73
2023-09-12T09:48:22.927Z,12.73
2023-09-12T09:50:50.507Z,14.87
2023-09-12T09:53:17.347Z,14.10
2023-09-12T09:55:44.718Z,12.83
2023-09-12T09:58:19.883Z,13.10
2023-09-12T10:00:49.920Z,13.57
2023-09-12T10:03:20.039Z,11.83
2023-09-12T10:05:49.743Z,11.40
2023-09-12T10:08:18.373Z,11.57
2023-09-12T10:10:46.235Z,11.43
2023-09-12T10:13:15.028Z,11.70
2023-09-12T10:15:44.256Z,11.67
2023-09-12T10:18:29.507Z,11.07
2023-09-12T10:21:05.541Z,10.00
2023-09-12T10:23:43.275Z,10.30
2023-09-12T10:26:13.405Z,10.50
2023-09-12T10:28:44.450Z,10.50
2023-09-12T10:31:14.236Z,10.40
2023-09-12T10:33:41.624Z,11.10
2023-09-12T10:36:10.238Z,11.10
2023-09-12T10:38:45.779Z,11.50
2023-09-12T10:41:15.868Z,10.43
2023-09-12T10:43:47.750Z,11.20
2023-09-12T10:46:14.815Z,11.53
2023-09-12T10:48:41.764Z,10.37
2023-09-12T10:51:11.116Z,11.23
2023-09-12T10:53:38.004Z,10.33
2023-09-12T10:56:10.508Z,11.50
2023-09-12T10:59:05.328Z,10.53
2023-09-12T11:01:33.477Z,9.30
2023-09-12T11:04:20.125Z,9.80
2023-09-12T11:06:48.768Z,8.80
2023-09-12T11:09:15.604Z,9.70
2023-09-12T11:11:49.968Z,10.57
2023-09-12T11:14:20.438Z,9.93
2023-09-12T11:17:08.738Z,10.37
2023-09-12T11:19:49.596Z,10.90
2023-09-12T11:22:30.456Z,9.80
2023-09-12T11:24:57.711Z,11.10
2023-09-12T11:27:31.993Z,10.23
2023-09-12T11:30:06.430Z,10.97
2023-09-12T11:32:37.647Z,10.87
2023-09-12T11:35:08.828Z,10.27
2023-09-12T11:37:38.488Z,11.00
2023-09-12T11:40:18.266Z,10.27
2023-09-12T11:42:48.851Z,9.40
2023-09-12T11:45:16.125Z,10.20
2023-09-12T11:47:43.714Z,10.83
2023-09-12T11:50:40.276Z,10.17
2023-09-12T11:53:10.752Z,9.93
2023-09-12T11:55:53.086Z,10.30
2023-09-12T11:58:20.900Z,11.70
2023-09-12T12:00:52.441Z,10.87
2023-09-12T12:03:21.979Z,10.50
2023-09-12T12:05:49.846Z,9.30
2023-09-12T12:10:55.207Z,9.03
2023-09-12T12:13:23.993Z,9.20
2023-09-12T12:15:51.747Z,8.17
2023-09-12T12:18:18.560Z,8.83
2023-09-12T12:20:45.376Z,8.80
2023-09-12T12:23:12.324Z,9.40
2023-09-12T12:25:38.982Z,8.50
2023-09-12T12:28:05.980Z,7.50
2023-09-12T12:30:35.264Z,7.80
2023-09-12T12:34:03.243Z,8.37
2023-09-12T12:36:04.174Z,8.30
2023-09-12T12:38:41.890Z,9.27
2023-09-12T12:41:11.823Z,8.27
2023-09-12T12:43:42.605Z,8.43
2023-09-12T12:46:13.708Z,7.70
2023-09-12T12:48:46.757Z,7.73
2023-09-12T12:51:19.342Z,8.57
2023-09-12T12:53:54.223Z,8.43
2023-09-12T12:56:32.036Z,7.20
2023-09-12T12:59:03.720Z,7.17
2023-09-12T13:01:30.901Z,6.87
2023-09-12T13:03:57.920Z,7.43
2023-09-12T13:06:26.627Z,5.83
2023-09-12T13:08:54.702Z,6.00
2023-09-12T13:11:21.667Z,6.20
2023-09-12T13:13:52.118Z,4.57
2023-09-12T13:16:19.294Z,4.67
2023-09-12T13:18:46.278Z,4.30
2023-09-12T13:21:13.183Z,4.60
2023-09-12T13:23:40.654Z,4.00
2023-09-12T13:26:11.413Z,4.13
2023-09-12T13:28:38.287Z,4.10
2023-09-12T13:31:04.982Z,4.53
2023-09-12T13:33:32.612Z,4.03
2023-09-12T13:36:00.206Z,4.23
2023-09-12T13:38:26.827Z,5.07
2023-09-12T13:40:53.807Z,4.67
2023-09-12T13:43:20.982Z,4.70
2023-09-12T13:45:48.800Z,4.50
2023-09-12T13:48:15.724Z,3.93
2023-09-12T13:50:44.157Z,3.80
2023-09-12T13:53:11.235Z,3.80
2023-09-12T13:55:48.845Z,3.33
2023-09-12T13:58:15.889Z,3.50
2023-09-12T14:00:42.591Z,4.43
2023-09-12T14:03:09.591Z,3.40
2023-09-12T14:05:36.982Z,3.60
2023-09-12T14:08:04.567Z,4.00
2023-09-12T14:10:37.060Z,4.63
2023-09-12T14:13:18.465Z,4.27
2023-09-12T14:15:51.566Z,4.00
2023-09-12T14:18:22.363Z,5.10
2023-09-12T14:20:51.057Z,3.50
2023-09-12T14:23:18.017Z,5.03
2023-09-12T14:25:46.381Z,4.50
2023-09-12T14:28:15.126Z,5.10
2023-09-12T14:30:45.996Z,4.07
2023-09-12T14:33:15.072Z,3.90
2023-09-12T14:35:44.829Z,4.90
2023-09-12T14:38:11.926Z,4.97
2023-09-12T14:40:39.287Z,4.40
2023-09-12T14:43:05.991Z,4.50
2023-09-12T14:45:34.977Z,3.80
2023-09-12T14:48:01.700Z,4.30
2023-09-12T14:50:39.218Z,3.60
2023-09-12T14:53:09.744Z,4.10
2023-09-12T14:55:36.363Z,4.60
2023-09-12T14:58:03.164Z,4.60
2023-09-12T15:00:31.397Z,4.93
2023-09-12T15:02:58.272Z,7.60
2023-09-12T15:05:25.996Z,5.00
2023-09-12T15:07:52.817Z,3.50
2023-09-12T15:10:20.499Z,3.70
2023-09-12T15:12:47.263Z,4.00
2023-09-12T15:15:13.836Z,4.00
2023-09-12T15:17:41.794Z,3.80
2023-09-12T15:23:10.941Z,5.20
2023-09-12T15:25:38.864Z,4.33
2023-09-12T15:28:06.040Z,4.10
2023-09-12T15:30:33.779Z,4.97
2023-09-12T15:33:00.595Z,6.60
2023-09-12T15:35:27.161Z,6.13
2023-09-12T15:37:54.154Z,6.77
2023-09-12T15:40:20.784Z,5.10
2023-09-12T15:42:48.230Z,4.10
2023-09-12T15:45:17.025Z,4.30
2023-09-12T15:47:45.184Z,5.30
2023-09-12T15:50:11.979Z,5.10
2023-09-12T15:52:39.436Z,4.20
2023-09-12T15:55:13.044Z,4.90
2023-09-12T15:57:39.977Z,5.13
2023-09-12T16:00:11.319Z,4.70
2023-09-12T16:02:42.077Z,4.23
2023-09-12T16:05:10.010Z,4.60
2023-09-12T16:07:37.411Z,4.20
2023-09-12T16:10:04.360Z,4.57
2023-09-12T16:12:31.461Z,4.00
2023-09-12T16:14:58.114Z,4.40
2023-09-12T16:17:25.257Z,4.63
2023-09-12T16:19:52.912Z,4.50
2023-09-12T16:22:19.687Z,4.27
2023-09-12T16:24:46.719Z,4.30
2023-09-12T16:27:13.829Z,4.00
2023-09-12T16:29:40.551Z,4.70
2023-09-12T16:32:07.155Z,4.30
2023-09-12T16:34:33.862Z,4.10
2023-09-12T16:37:00.619Z,4.83
2023-09-12T16:39:27.646Z,4.60
2023-09-12T16:41:54.497Z,4.27
2023-09-12T16:44:23.964Z,4.33
2023-09-12T16:46:51.553Z,4.83
2023-09-12T16:49:18.419Z,4.20
2023-09-12T16:51:45.890Z,5.07
2023-09-12T16:54:12.509Z,4.50
2023-09-12T16:56:39.351Z,5.27
2023-09-12T16:59:06.004Z,4.67
2023-09-12T17:01:33.073Z,4.70
2023-09-12T17:04:02.953Z,5.20
2023-09-12T17:06:33.281Z,4.90
2023-09-12T17:09:02.291Z,3.50
2023-09-12T17:11:32.374Z,4.97
2023-09-12T17:13:59.238Z,4.63
2023-09-12T17:16:26.214Z,4.97
2023-09-12T17:18:53.432Z,5.40
2023-09-12T17:21:20.070Z,4.70
2023-09-12T17:23:46.648Z,5.50
2023-09-12T17:26:13.331Z,5.40
2023-09-12T17:28:40.403Z,5.73
2023-09-12T17:31:07.813Z,5.50
2023-09-12T17:33:35.245Z,5.07
2023-09-12T17:36:04.070Z,5.33
2023-09-12T17:38:30.630Z,5.40
2023-09-12T17:40:57.728Z,5.63
2023-09-12T17:43:25.456Z,5.93
2023-09-12T17:46:08.044Z,5.90
2023-09-12T17:48:37.314Z,5.40
2023-09-12T17:51:04.532Z,5.50
2023-09-12T17:53:31.264Z,5.60
2023-09-12T17:55:58.224Z,5.93
2023-09-12T17:58:24.796Z,5.10
2023-09-12T18:00:59.427Z,5.87
2023-09-12T18:03:30.905Z,5.00
2023-09-12T18:06:00.714Z,5.30
2023-09-12T18:08:27.617Z,6.13
2023-09-12T18:10:54.498Z,5.30
2023-09-12T18:13:21.104Z,5.30
2023-09-12T18:15:47.889Z,5.60
2023-09-12T18:18:14.566Z,6.40
2023-09-12T18:20:41.874Z,5.90
2023-09-12T18:23:08.552Z,5.50
2023-09-12T18:25:35.464Z,5.40
2023-09-12T18:28:02.988Z,5.73
2023-09-12T18:30:30.088Z,6.03
2023-09-12T18:32:58.232Z,6.97
2023-09-12T18:35:25.576Z,6.50
2023-09-12T18:37:53.798Z,5.97
2023-09-12T18:40:21.568Z,6.03
2023-09-12T18:42:48.559Z,7.30
2023-09-12T18:45:15.990Z,5.57
2023-09-12T18:47:43.726Z,6.70
2023-09-12T18:50:10.698Z,6.70
2023-09-12T18:52:51.922Z,6.80
2023-09-12T18:55:32.962Z,6.60
2023-09-12T18:58:01.361Z,6.93
2023-09-12T19:00:28.316Z,7.57
2023-09-12T19:02:55.709Z,5.80
2023-09-12T19:05:23.462Z,6.03
2023-09-12T19:07:50.381Z,7.70
2023-09-12T19:10:19.719Z,7.23
2023-09-12T19:12:47.301Z,6.63
2023-09-12T19:15:15.415Z,6.80
2023-09-12T19:17:42.708Z,5.93
2023-09-12T19:20:12.704Z,5.70
2023-09-12T19:22:41.121Z,7.40
2023-09-12T19:25:08.815Z,7.73
2023-09-12T19:27:38.000Z,6.73
2023-09-12T19:30:07.940Z,6.47
2023-09-12T19:32:35.413Z,6.93
2023-09-12T19:35:03.180Z,6.57
2023-09-12T19:37:29.926Z,6.50
2023-09-12T19:39:57.495Z,6.40
2023-09-12T19:42:24.236Z,6.13
2023-09-12T19:44:53.554Z,6.90
2023-09-12T19:47:21.490Z,7.10
2023-09-12T19:49:49.348Z,5.73
2023-09-12T19:52:16.085Z,6.00
2023-09-12T19:54:43.317Z,5.03
2023-09-12T19:57:10.509Z,4.80
2023-09-12T19:59:37.683Z,4.23
2023-09-12T20:02:04.758Z,5.60
2023-09-12T20:04:35.236Z,5.37
2023-09-12T20:07:03.999Z,5.73
2023-09-12T20:09:31.153Z,4.97
2023-09-12T20:11:58.728Z,4.93
2023-09-12T20:14:25.469Z,5.10
2023-09-12T20:16:54.144Z,5.03
2023-09-12T20:19:21.584Z,4.40
2023-09-12T20:21:48.203Z,4.40
2023-09-12T20:24:14.892Z,5.10
2023-09-12T20:26:41.559Z,5.67
2023-09-12T20:29:10.882Z,5.70
2023-09-12T20:31:38.985Z,6.37
2023-09-12T20:34:05.643Z,7.40
2023-09-12T20:36:34.828Z,7.67
2023-09-12T20:39:28.376Z,7.80
2023-09-12T20:41:57.459Z,7.50
2023-09-12T20:44:24.817Z,7.90
2023-09-12T20:46:53.041Z,9.00
2023-09-12T20:49:19.988Z,8.10
2023-09-12T20:51:50.807Z,7.07
2023-09-12T20:54:20.017Z,6.40
2023-09-12T20:56:50.981Z,6.67
2023-09-12T20:59:18.044Z,6.90
2023-09-12T21:01:45.307Z,6.17
2023-09-12T21:04:13.171Z,7.07
2023-09-12T21:06:40.517Z,5.63
2023-09-12T21:09:07.289Z,6.00
2023-09-12T21:11:33.944Z,5.20
2023-09-12T21:14:00.916Z,5.23
2023-09-12T21:16:28.510Z,5.10
2023-09-12T21:18:55.472Z,5.60
2023-09-12T21:21:23.255Z,4.70
2023-09-12T21:23:49.917Z,5.63
2023-09-12T21:26:20.302Z,5.40
2023-09-12T21:28:46.993Z,6.47
2023-09-12T21:31:14.815Z,6.53
2023-09-12T21:33:45.797Z,6.57
2023-09-12T21:36:13.409Z,6.20
2023-09-12T21:38:40.141Z,5.07
2023-09-12T21:41:06.765Z,5.43
2023-09-12T21:43:34.199Z,5.40
2023-09-12T21:46:00.886Z,6.50
2023-09-12T21:48:27.567Z,6.53
2023-09-12T21:50:54.213Z,7.37
2023-09-12T21:53:20.919Z,6.80
2023-09-12T21:55:49.373Z,7.07
2023-09-12T21:58:16.888Z,7.20
2023-09-12T22:00:44.254Z,7.50
2023-09-12T22:03:11.762Z,8.17
2023-09-12T22:05:39.418Z,7.87
2023-09-12T22:08:07.558Z,8.57
2023-09-12T22:10:39.295Z,7.43
2023-09-12T22:13:06.663Z,6.53
2023-09-12T22:15:33.514Z,7.03
2023-09-12T22:18:00.429Z,6.70
2023-09-12T22:20:27.078Z,6.10
2023-09-12T22:22:54.393Z,5.70
2023-09-12T22:25:21.755Z,6.20
2023-09-12T22:27:48.401Z,6.13
2023-09-12T22:30:15.031Z,6.60
2023-09-12T22:32:42.037Z,6.40
2023-09-12T22:35:09.578Z,6.27
2023-09-12T22:37:37.165Z,6.63
2023-09-12T22:40:06.354Z,5.97
2023-09-12T22:42:33.743Z,6.10
2023-09-12T22:45:00.323Z,5.83
2023-09-12T22:47:27.696Z,6.73
2023-09-12T22:49:57.607Z,6.53
2023-09-12T22:52:24.554Z,5.83
2023-09-12T22:54:51.258Z,5.97
2023-09-12T22:57:18.182Z,5.50
2023-09-12T22:59:45.026Z,5.70
2023-09-12T23:02:11.915Z,6.20
2023-09-12T23:04:38.701Z,7.00
2023-09-12T23:07:05.488Z,6.67
2023-09-12T23:09:32.821Z,6.30
2023-09-12T23:11:59.607Z,6.27
2023-09-12T23:14:27.524Z,6.80
2023-09-12T23:16:54.145Z,6.07
2023-09-12T23:19:20.801Z,6.40
2023-09-12T23:21:47.647Z,6.80
2023-09-12T23:24:14.223Z,6.70
2023-09-12T23:26:41.792Z,7.20
2023-09-12T23:29:08.649Z,5.90
2023-09-12T23:31:35.291Z,7.17
2023-09-12T23:34:02.115Z,7.77
2023-09-12T23:36:28.939Z,7.93
2023-09-12T23:38:55.480Z,7.30
2023-09-12T23:41:23.566Z,8.17
2023-09-12T23:43:50.155Z,7.83
2023-09-12T23:46:16.829Z,8.33
2023-09-12T23:48:43.612Z,7.10
2023-09-12T23:51:10.687Z,8.43
2023-09-12T23:53:37.539Z,9.23
2023-09-12T23:56:04.265Z,8.70
2023-09-12T23:58:30.883Z,8.10
